UACC/TSE METAR and TAF weather

Enter ICAO airport designator
Station Type Date Time Source
UACC METAR 2022/10/01 08:00 UTC NOAA

UACC 010800Z 12003MPS 9999 SCT040 03/M09 Q1038 WS R04 NOSIG RMK QFE746/0995


Station Type Date Time Source
UACC Decoded METAR 2022/10/01 08:00 UTC NOAA

Astana, Kazakhstan (UACC) 51-12N 071-27E
Oct 01, 2022 - 04:00 AM EDT / 2022.10.01 0800 UTC
Wind: from the ESE (120 degrees) at 7 MPH (6 KT):0
Visibility: greater than 7 mile(s):0
Sky conditions: partly cloudy
Temperature: 37 F (3 C)
Dew Point: 15 F (-9 C)
Relative Humidity: 40%
Pressure (altimeter): 30.65 in. Hg (1038 hPa)
ob: UACC 010800Z 12003MPS 9999 SCT040 03/M09 Q1038 WS R04 NOSIG RMK QFE746/0995
cycle: 8

Station Type Date Time Source
UACC TAF 2022/10/01 06:21 UTC NOAA

TAF UACC 010501Z 0106/0206 08006MPS 9999 SCT030 BKN050 TX04/0109Z TNM04/0201Z
BECMG 0113/0115 07004MPS
BECMG 0202/0204 11006MPS

Example: see airport list